Time;durP1;ratioP1;P1;durP2;ratioP2;P2;SDS_P1;SDS_P2;PMS_P1;PMS_P2;Temp;Humidity;BMP_temperature;BMP_pressure;BME280_temperature;BME280_humidity;BME280_pressure;Samples;Min_cycle;Max_cycle;Signal;HPM_P1;HPM_P2
2022/05/05 00:00:46;;;;;;;2.13;1.70;;;;;;;3.63;59.24;101981.72;5055045;28;20639;-64
2022/05/05 00:03:12;;;;;;;6.07;1.47;;;;;;;3.29;59.57;101930.13;5054960;28;20032;-66
2022/05/05 00:05:39;;;;;;;2.57;1.50;;;;;;;3.56;59.71;101971.63;5054972;28;20813;-64
2022/05/05 00:08:05;;;;;;;1.97;1.30;;;;;;;3.63;59.70;101978.25;5054943;28;20256;-66
2022/05/05 00:15:59;;;;;;;5.60;1.40;;;;;;;3.50;60.15;101967.56;5054737;28;20271;-64
2022/05/05 00:18:25;;;;;;;1.67;1.23;;;;;;;3.68;60.07;101986.72;5054953;28;20255;-65
2022/05/05 00:20:50;;;;;;;2.47;1.60;;;;;;;3.62;59.75;101973.91;5054462;28;20048;-64
2022/05/05 00:23:16;;;;;;;2.57;1.20;;;;;;;3.75;59.53;101985.41;5054571;28;20254;-65
2022/05/05 00:25:42;;;;;;;1.97;1.20;;;;;;;3.77;59.53;101982.72;5054746;28;20408;-64
2022/05/05 00:28:07;;;;;;;3.37;1.20;;;;;;;3.74;59.71;101981.09;5054413;28;20081;-64
2022/05/05 00:30:33;;;;;;;3.47;1.50;;;;;;;3.78;59.84;101987.91;5054168;28;20198;-64
2022/05/05 00:33:00;;;;;;;3.67;1.27;;;;;;;3.76;59.31;101983.63;5054294;28;20503;-63
2022/05/05 00:35:26;;;;;;;3.43;1.53;;;;;;;3.84;58.95;101986.69;5054603;28;20051;-66
2022/05/05 00:37:52;;;;;;;2.37;1.20;;;;;;;3.73;58.83;101966.22;5054276;28;20276;-64
2022/05/05 00:40:17;;;;;;;3.23;1.40;;;;;;;3.78;58.88;101966.81;5054296;28;20041;-63
2022/05/05 00:42:43;;;;;;;3.10;2.03;;;;;;;3.84;58.81;101981.44;5054229;28;20029;-64
2022/05/05 00:45:09;;;;;;;2.23;1.23;;;;;;;3.74;58.57;101965.28;5054021;28;20484;-66
2022/05/05 00:47:34;;;;;;;3.73;1.20;;;;;;;3.82;58.97;101985.94;5054124;28;20044;-64
2022/05/05 00:50:00;;;;;;;1.60;1.20;;;;;;;3.82;59.17;101984.16;5054069;28;20402;-66
2022/05/05 00:52:27;;;;;;;1.93;1.20;;;;;;;3.65;59.11;101965.81;5054115;28;20039;-64
2022/05/05 00:54:55;;;;;;;5.60;1.10;;;;;;;3.63;59.52;101984.34;5052873;28;20512;-64
2022/05/05 00:57:21;;;;;;;3.30;1.27;;;;;;;3.62;59.76;101993.19;5054079;28;20325;-63
2022/05/05 00:59:47;;;;;;;2.10;1.30;;;;;;;3.54;59.68;101986.69;5053813;28;20032;-65
2022/05/05 01:02:13;;;;;;;3.67;1.70;;;;;;;2.84;60.02;101895.84;5053680;28;20547;-68
2022/05/05 01:04:38;;;;;;;2.53;1.27;;;;;;;3.32;60.01;101969.44;5053944;28;20075;-64
2022/05/05 01:07:04;;;;;;;3.30;1.40;;;;;;;3.11;60.66;101950.44;5054074;28;20041;-63
2022/05/05 01:09:30;;;;;;;10.03;1.40;;;;;;;3.32;58.72;101984.41;5053702;28;20029;-67
2022/05/05 01:11:55;;;;;;;1.93;1.30;;;;;;;3.42;58.39;101996.09;5053392;28;20061;-65
2022/05/05 01:14:21;;;;;;;4.60;1.40;;;;;;;3.38;58.11;101992.78;5054166;28;20087;-65
2022/05/05 01:16:47;;;;;;;6.03;1.40;;;;;;;3.31;57.80;101987.97;5056200;28;20523;-64
2022/05/05 01:19:12;;;;;;;3.40;1.33;;;;;;;3.32;57.69;101979.97;5056658;28;20476;-65
2022/05/05 01:21:38;;;;;;;5.43;1.73;;;;;;;3.45;57.28;102005.63;5055414;28;20029;-66
2022/05/05 01:24:04;;;;;;;1.83;1.60;;;;;;;3.33;57.65;101980.84;5053505;28;20036;-65
2022/05/05 01:29:14;;;;;;;3.00;1.20;;;;;;;3.45;57.28;101987.19;5053634;28;20036;-65
2022/05/05 01:31:40;;;;;;;2.43;1.37;;;;;;;3.43;57.15;101976.72;5053513;28;20655;-65
2022/05/05 01:34:06;;;;;;;2.80;1.20;;;;;;;3.52;57.49;101985.91;5052990;28;20504;-65
2022/05/05 01:36:32;;;;;;;7.10;1.60;;;;;;;3.54;57.48;101994.56;5053447;28;20102;-67
2022/05/05 01:38:58;;;;;;;1.57;1.40;;;;;;;3.52;57.48;101991.19;5053703;28;20267;-64
2022/05/05 01:41:23;;;;;;;4.67;1.90;;;;;;;3.35;57.23;101957.88;5053502;28;20203;-65
2022/05/05 01:43:49;;;;;;;3.20;1.80;;;;;;;3.47;57.27;101980.91;5053727;28;20040;-65
2022/05/05 01:46:15;;;;;;;2.93;1.33;;;;;;;3.61;57.56;101996.78;5052033;28;20545;-66
2022/05/05 01:48:40;;;;;;;4.90;1.60;;;;;;;3.55;57.47;101977.84;5053250;28;20068;-66
2022/05/05 01:51:06;;;;;;;2.97;1.40;;;;;;;3.65;57.30;101992.16;5051936;28;20443;-67
2022/05/05 01:53:38;;;;;;;2.90;1.60;;;;;;;3.65;57.00;101997.44;5053011;28;20051;-65
2022/05/05 01:56:06;;;;;;;4.27;1.73;;;;;;;3.62;57.20;101992.34;5052685;28;20045;-66
2022/05/05 01:58:32;;;;;;;3.00;1.73;;;;;;;3.52;57.34;101978.00;5052907;28;20278;-64
2022/05/05 02:00:58;;;;;;;6.47;1.60;;;;;;;3.31;57.63;101951.09;5052844;28;20263;-65
2022/05/05 02:03:23;;;;;;;3.83;1.50;;;;;;;3.49;56.67;101976.41;5052749;28;20044;-64
2022/05/05 02:05:49;;;;;;;10.97;1.50;;;;;;;3.59;56.54;101982.00;5052763;28;20032;-67
2022/05/05 02:08:16;;;;;;;1.80;1.20;;;;;;;3.60;56.43;101988.94;5053454;28;20041;-65
2022/05/05 02:10:42;;;;;;;2.73;1.40;;;;;;;3.65;56.53;102003.56;5052327;28;20360;-65
2022/05/05 02:13:09;;;;;;;4.67;2.40;;;;;;;3.68;56.42;102002.53;5052522;28;20033;-65
2022/05/05 02:15:35;;;;;;;2.17;1.40;;;;;;;3.66;56.49;101992.06;5052684;28;20029;-66
2022/05/05 02:18:09;;;;;;;1.67;1.37;;;;;;;3.69;56.54;101993.69;5052424;28;20270;-66
2022/05/05 02:20:37;;;;;;;3.40;1.23;;;;;;;3.66;56.04;101996.50;5051240;28;20037;-64
2022/05/05 02:23:03;;;;;;;1.40;1.30;;;;;;;3.58;56.20;101977.66;5052139;28;20318;-65
2022/05/05 02:25:28;;;;;;;7.83;1.67;;;;;;;3.62;56.17;101973.91;5052376;28;20266;-65
2022/05/05 02:27:54;;;;;;;3.77;1.80;;;;;;;3.75;55.05;101988.06;5053560;28;20271;-65
2022/05/05 02:30:22;;;;;;;4.17;1.40;;;;;;;3.70;54.48;101995.38;5052452;28;20041;-67
2022/05/05 02:32:52;;;;;;;2.78;1.30;;;;;;;3.78;53.40;101992.31;5052862;28;20053;-65
2022/05/05 02:35:20;;;;;;;3.63;1.37;;;;;;;3.88;52.28;102010.13;5051993;28;20045;-65
2022/05/05 02:40:31;;;;;;;2.87;1.60;;;;;;;3.57;51.65;101947.00;5052172;28;20271;-65
2022/05/05 02:42:58;;;;;;;3.87;1.30;;;;;;;3.92;51.85;102006.38;5051930;28;20739;-63
2022/05/05 02:45:24;;;;;;;3.30;1.60;;;;;;;4.01;51.52;102016.38;5051180;28;20263;-67
2022/05/05 02:47:50;;;;;;;1.93;1.27;;;;;;;4.07;51.62;102009.06;5051941;28;20274;-66
2022/05/05 02:50:17;;;;;;;2.73;1.40;;;;;;;4.08;51.64;102018.69;5051929;28;20291;-66
2022/05/05 02:52:43;;;;;;;3.47;1.30;;;;;;;4.19;51.76;102010.97;5052367;28;20270;-66
2022/05/05 02:55:08;;;;;;;4.10;1.47;;;;;;;4.22;52.06;102016.06;5051970;28;20283;-66
2022/05/05 02:57:35;;;;;;;3.27;1.30;;;;;;;4.39;51.68;102034.38;5052248;28;20399;-66
2022/05/05 03:00:00;;;;;;;8.30;1.50;;;;;;;4.24;51.80;102007.13;5050844;28;20040;-66
2022/05/05 03:02:26;;;;;;;5.63;1.63;;;;;;;4.34;52.00;102008.28;5051644;28;20263;-65
2022/05/05 03:04:52;;;;;;;1.73;1.30;;;;;;;4.43;52.20;102025.34;5051914;28;20507;-66
2022/05/05 03:07:18;;;;;;;8.03;1.73;;;;;;;4.46;51.54;102030.44;5051791;28;20025;-67
2022/05/05 03:09:44;;;;;;;4.37;1.20;;;;;;;4.39;51.50;102018.56;5051947;28;20056;-65
2022/05/05 03:12:10;;;;;;;8.47;1.50;;;;;;;4.60;51.05;102035.72;5051841;28;20283;-69
2022/05/05 03:14:37;;;;;;;6.77;1.60;;;;;;;4.71;50.71;102026.31;5051688;28;20043;-67
2022/05/05 03:17:04;;;;;;;5.43;2.07;;;;;;;4.64;49.96;102004.72;5051484;28;20270;-67
2022/05/05 03:19:29;;;;;;;2.97;1.37;;;;;;;4.92;49.70;102022.34;5051768;28;20278;-66
2022/05/05 03:21:55;;;;;;;3.40;1.53;;;;;;;5.24;48.51;102042.31;5051833;28;20272;-66
2022/05/05 03:24:21;;;;;;;5.73;1.63;;;;;;;5.41;47.87;102022.72;5050301;28;20045;-64
2022/05/05 03:26:47;;;;;;;3.97;1.43;;;;;;;5.49;48.25;102027.50;5051631;28;20029;-64
2022/05/05 03:29:12;;;;;;;3.00;1.83;;;;;;;5.36;48.98;102048.59;5050383;28;20032;-66
2022/05/05 03:31:39;;;;;;;4.50;1.77;;;;;;;5.10;49.38;102031.75;5051159;28;20412;-65
2022/05/05 03:34:05;;;;;;;3.30;1.67;;;;;;;5.09;50.16;102043.25;5051631;28;20052;-66
2022/05/05 03:36:31;;;;;;;3.47;1.77;;;;;;;5.05;50.69;102040.91;5051775;28;20279;-64
2022/05/05 03:38:57;;;;;;;1.93;1.40;;;;;;;4.97;50.93;102036.13;5051232;28;20600;-67
2022/05/05 03:41:23;;;;;;;1.30;1.17;;;;;;;4.84;50.94;102024.59;5051393;28;20476;-65
2022/05/05 03:43:49;;;;;;;5.23;1.80;;;;;;;4.89;51.01;102031.28;5051657;28;20037;-66
2022/05/05 03:46:15;;;;;;;4.07;1.47;;;;;;;4.83;50.74;102025.53;5050300;28;20047;-66
2022/05/05 03:48:41;;;;;;;4.37;1.57;;;;;;;4.92;50.58;102046.97;5051771;28;20272;-66
2022/05/05 03:51:07;;;;;;;4.93;1.20;;;;;;;5.01;50.71;102029.69;5051899;28;20435;-68
2022/05/05 03:53:33;;;;;;;2.40;1.27;;;;;;;5.12;50.41;102040.41;5051426;28;20418;-66
2022/05/05 03:55:59;;;;;;;6.10;1.47;;;;;;;4.96;49.77;101997.47;5051102;28;20454;-66
2022/05/05 03:58:28;;;;;;;9.03;1.57;;;;;;;5.45;50.14;102044.50;5055060;28;20268;-69
2022/05/05 04:00:53;;;;;;;5.18;1.38;;;;;;;5.58;48.83;102041.00;5054874;28;20033;-67
2022/05/05 04:03:31;;;;;;;1.67;1.40;;;;;;;5.77;49.43;102048.56;5055312;28;20036;-68
2022/05/05 04:06:00;;;;;;;2.37;1.13;;;;;;;5.98;48.55;102058.72;5055026;28;20518;-64
2022/05/05 04:08:26;;;;;;;1.70;1.30;;;;;;;6.07;48.02;102052.81;5055326;28;20259;-67
2022/05/05 04:10:52;;;;;;;3.73;1.80;;;;;;;6.23;48.07;102058.78;5056038;28;20361;-67
2022/05/05 04:13:19;;;;;;;1.63;1.37;;;;;;;5.80;48.39;102013.16;5055201;28;20627;-65
2022/05/05 04:15:45;;;;;;;1.70;1.33;;;;;;;5.83;47.93;102013.81;5054712;28;20267;-69
2022/05/05 04:18:11;;;;;;;1.83;1.10;;;;;;;6.10;48.50;102068.50;5055124;28;20264;-68
2022/05/05 04:20:36;;;;;;;2.50;1.80;;;;;;;5.95;48.67;102048.34;5054715;28;20267;-67
2022/05/05 04:23:02;;;;;;;3.43;1.57;;;;;;;5.89;48.74;102045.16;5054618;28;20033;-66
2022/05/05 04:25:28;;;;;;;4.40;1.30;;;;;;;5.86;48.64;102045.34;5054884;28;20045;-67
2022/05/05 04:27:53;;;;;;;2.33;1.50;;;;;;;5.84;49.20;102047.22;5053766;28;20116;-67
2022/05/05 04:30:19;;;;;;;3.67;1.93;;;;;;;5.86;49.45;102049.78;5055158;28;20044;-67
2022/05/05 04:32:45;;;;;;;5.57;1.63;;;;;;;6.04;49.63;102068.88;5054164;28;20045;-65
2022/05/05 04:35:12;;;;;;;5.47;1.50;;;;;;;5.81;49.77;102014.88;5054602;28;20087;-66
2022/05/05 04:37:39;;;;;;;3.47;1.63;;;;;;;6.07;49.40;102073.97;5054325;28;20276;-66
2022/05/05 04:40:05;;;;;;;4.63;2.23;;;;;;;6.00;49.18;102057.66;5054347;28;20271;-66
2022/05/05 04:42:31;;;;;;;4.53;1.73;;;;;;;6.24;48.85;102071.06;5054374;28;20271;-66
2022/05/05 04:44:57;;;;;;;4.13;1.77;;;;;;;6.34;48.99;102055.41;5054398;28;20634;-66
2022/05/05 04:47:22;;;;;;;4.27;1.60;;;;;;;6.49;48.32;102064.97;5054434;28;20083;-68
2022/05/05 04:49:48;;;;;;;2.93;1.60;;;;;;;6.76;48.47;102072.81;5054279;28;20408;-66
2022/05/05 04:52:13;;;;;;;5.23;1.80;;;;;;;6.94;47.42;102070.66;5052833;28;20032;-66
2022/05/05 04:54:39;;;;;;;5.83;1.90;;;;;;;7.03;47.03;102065.59;5054098;28;20033;-66
2022/05/05 04:57:05;;;;;;;6.00;2.00;;;;;;;7.20;45.94;102060.88;5053627;28;20033;-67
2022/05/05 04:59:30;;;;;;;3.47;1.97;;;;;;;7.32;46.76;102060.88;5054071;28;20029;-66
2022/05/05 05:01:56;;;;;;;5.97;2.80;;;;;;;7.37;46.96;102068.50;5053624;28;20040;-67
2022/05/05 05:04:21;;;;;;;3.20;1.97;;;;;;;7.28;46.39;102037.38;5053856;28;20063;-66
2022/05/05 05:06:47;;;;;;;9.73;2.93;;;;;;;7.53;46.67;102071.75;5053670;28;20503;-66
2022/05/05 05:09:13;;;;;;;9.73;2.07;;;;;;;7.29;45.72;102044.34;5053274;28;20082;-65
2022/05/05 05:12:04;;;;;;;8.17;2.07;;;;;;;7.35;45.82;102065.97;5053519;28;20514;-67
2022/05/05 05:14:30;;;;;;;4.83;1.40;;;;;;;7.36;46.52;102050.91;5053593;28;20184;-66
2022/05/05 05:16:56;;;;;;;5.23;2.00;;;;;;;7.58;45.85;102072.25;5053812;28;20041;-68
2022/05/05 05:19:22;;;;;;;8.03;2.40;;;;;;;7.52;45.84;102067.41;5054450;28;20769;-67
2022/05/05 05:21:47;;;;;;;4.37;1.60;;;;;;;7.18;46.08;102015.13;5055180;28;20036;-68
2022/05/05 05:24:14;;;;;;;4.93;2.27;;;;;;;7.32;46.43;102075.94;5054891;28;20083;-68
2022/05/05 05:26:40;;;;;;;5.43;1.90;;;;;;;7.30;46.77;102072.56;5054932;28;20542;-67
2022/05/05 05:29:06;;;;;;;5.53;2.37;;;;;;;6.95;46.30;102027.38;5054131;28;20063;-67
2022/05/05 05:31:34;;;;;;;6.37;2.27;;;;;;;7.21;47.23;102074.03;5052121;28;20041;-67
2022/05/05 05:34:00;;;;;;;4.73;1.80;;;;;;;7.23;47.22;102088.03;5051413;28;20295;-66
2022/05/05 05:36:29;;;;;;;3.77;1.80;;;;;;;7.15;47.18;102085.91;5050837;28;20041;-71
2022/05/05 05:38:55;;;;;;;10.70;3.35;;;;;;;7.14;47.37;102086.88;5052740;28;20472;-69
2022/05/05 05:41:21;;;;;;;4.83;1.67;;;;;;;6.96;48.93;102069.63;5047429;28;20029;-64
2022/05/05 05:43:51;;;;;;;7.67;2.00;;;;;;;6.94;48.46;102087.44;5052720;28;20282;-69
2022/05/05 05:46:17;;;;;;;5.97;2.20;;;;;;;7.08;48.63;102092.59;5052636;28;20060;-67
2022/05/05 05:48:43;;;;;;;5.13;2.07;;;;;;;7.05;48.26;102091.97;5051525;28;20264;-70
2022/05/05 05:51:09;;;;;;;3.57;1.70;;;;;;;7.04;47.94;102084.97;5052698;28;20068;-71
2022/05/05 05:53:35;;;;;;;6.77;2.50;;;;;;;7.00;48.45;102092.31;5052662;28;20053;-70
2022/05/05 05:56:02;;;;;;;7.57;2.63;;;;;;;6.87;49.16;102064.13;5052755;28;20068;-68
2022/05/05 05:58:28;;;;;;;5.27;2.10;;;;;;;7.22;48.73;102102.22;5051002;28;20263;-70
2022/05/05 06:00:54;;;;;;;6.70;1.90;;;;;;;6.98;48.58;102030.66;5053512;28;20279;-71
2022/05/05 06:06:03;;;;;;;15.30;2.77;;;;;;;7.68;47.65;102089.19;5051048;28;20043;-66
2022/05/05 06:08:30;;;;;;;6.83;2.10;;;;;;;7.71;48.25;102077.50;5053082;28;20122;-67
2022/05/05 06:10:56;;;;;;;6.90;1.97;;;;;;;7.86;47.99;102087.00;5052984;28;20040;-69
2022/05/05 06:13:21;;;;;;;9.10;3.40;;;;;;;8.12;47.27;102082.44;5052671;28;20205;-64
2022/05/05 06:15:47;;;;;;;3.50;2.30;;;;;;;8.35;46.46;102073.59;5053332;28;20839;-66
2022/05/05 06:18:12;;;;;;;3.40;2.07;;;;;;;8.38;45.92;102078.69;5052266;28;20456;-63
2022/05/05 06:20:38;;;;;;;5.00;2.37;;;;;;;8.56;46.03;102107.44;5052211;28;20028;-64
2022/05/05 06:23:03;;;;;;;14.70;3.13;;;;;;;8.47;46.26;102097.53;5053578;28;20040;-62
2022/05/05 06:25:29;;;;;;;11.07;2.30;;;;;;;8.44;46.04;102097.78;5054374;28;20084;-73
2022/05/05 06:27:57;;;;;;;5.57;2.40;;;;;;;8.47;46.23;102093.06;5054003;28;20037;-64
2022/05/05 06:30:23;;;;;;;9.73;2.03;;;;;;;8.42;46.50;102091.72;5047626;28;20055;-63
2022/05/05 06:32:49;;;;;;;9.47;2.30;;;;;;;8.18;46.58;102081.97;5051293;28;20057;-63
2022/05/05 06:35:14;;;;;;;3.87;2.10;;;;;;;8.09;46.80;102095.91;5051642;28;20040;-62
2022/05/05 06:37:40;;;;;;;9.00;3.27;;;;;;;7.96;46.37;102095.13;5050942;28;20082;-63
2022/05/05 06:40:06;;;;;;;6.97;1.97;;;;;;;7.88;46.46;102079.78;5051658;28;20083;-65
2022/05/05 06:42:32;;;;;;;6.13;1.97;;;;;;;8.23;46.90;102109.00;5051496;28;20036;-67
2022/05/05 06:44:58;;;;;;;8.13;2.00;;;;;;;8.42;46.81;102089.91;5051571;28;20036;-64
2022/05/05 06:47:24;;;;;;;3.03;2.10;;;;;;;8.67;46.41;102110.13;5051016;28;20397;-61
2022/05/05 06:49:50;;;;;;;21.70;2.57;;;;;;;8.79;46.79;102106.53;5050811;28;20040;-67
2022/05/05 06:52:16;;;;;;;5.20;1.97;;;;;;;8.74;46.44;102094.56;5051337;28;20404;-62
2022/05/05 06:54:41;;;;;;;4.73;2.30;;;;;;;8.17;47.01;101983.88;5051391;28;20048;-63
2022/05/05 06:57:07;;;;;;;7.63;2.10;;;;;;;8.92;46.35;102115.25;5051800;28;20399;-65
2022/05/05 06:59:32;;;;;;;6.57;2.30;;;;;;;9.00;45.98;102122.63;5052194;28;20045;-61
2022/05/05 07:02:02;;;;;;;10.53;1.60;;;;;;;9.06;45.97;102121.31;5051635;28;20040;-63
2022/05/05 07:07:15;;;;;;;12.00;2.37;;;;;;;9.18;45.79;102118.53;5049033;28;20094;-63
2022/05/05 07:12:26;;;;;;;4.53;1.40;;;;;;;9.09;46.61;102121.91;5050903;28;20496;-63
2022/05/05 07:14:52;;;;;;;4.50;1.80;;;;;;;9.20;46.22;102115.75;5051327;28;20066;-62
2022/05/05 07:17:18;;;;;;;3.60;1.57;;;;;;;8.97;47.00;102075.06;5051108;28;20033;-64
2022/05/05 07:19:43;;;;;;;3.90;1.70;;;;;;;9.40;46.06;102115.03;5051028;28;20033;-64
2022/05/05 07:22:09;;;;;;;6.00;1.70;;;;;;;9.50;45.78;102085.88;5051355;28;20123;-63
2022/05/05 07:24:35;;;;;;;5.50;1.60;;;;;;;9.84;45.40;102129.25;5051279;28;20423;-64
2022/05/05 07:27:02;;;;;;;1.90;1.30;;;;;;;9.74;42.56;102122.94;5050994;28;20033;-66
2022/05/05 07:29:28;;;;;;;1.60;1.47;;;;;;;9.86;42.41;102132.63;5051288;28;20044;-67
2022/05/05 07:31:53;;;;;;;6.37;1.60;;;;;;;9.88;40.89;102134.19;5053795;28;20029;-61
2022/05/05 07:34:20;;;;;;;5.27;2.13;;;;;;;9.70;40.23;102089.59;5055224;28;20056;-66
2022/05/05 07:36:46;;;;;;;4.63;1.90;;;;;;;9.97;41.35;102129.91;5054974;28;20076;-68
2022/05/05 07:39:12;;;;;;;3.13;1.70;;;;;;;9.94;42.98;102103.56;5055152;28;20110;-67
2022/05/05 07:41:38;;;;;;;2.10;1.60;;;;;;;9.90;41.84;102083.50;5054575;28;20066;-67
2022/05/05 07:44:05;;;;;;;7.77;1.80;;;;;;;10.19;39.38;102121.88;5054885;28;20476;-68
2022/05/05 07:46:35;;;;;;;2.93;1.60;;;;;;;10.37;40.02;102131.97;5049829;28;20056;-66
2022/05/05 07:49:06;;;;;;;1.43;1.33;;;;;;;10.48;38.41;102139.94;5054602;28;20107;-68
2022/05/05 07:51:32;;;;;;;5.80;2.10;;;;;;;10.56;38.68;102137.47;5051896;28;20517;-64
2022/05/05 07:56:43;;;;;;;2.17;1.30;;;;;;;10.86;38.28;102129.53;5053784;28;20053;-66
2022/05/05 07:59:10;;;;;;;3.83;2.30;;;;;;;10.83;36.82;102113.81;5054527;28;20493;-65
2022/05/05 08:01:35;;;;;;;2.70;2.00;;;;;;;10.94;36.05;102128.03;5054605;28;20048;-64
2022/05/05 08:04:01;;;;;;;1.90;1.53;;;;;;;10.90;36.80;102122.13;5054239;28;20408;-67
2022/05/05 08:06:26;;;;;;;4.90;1.40;;;;;;;10.69;35.74;102090.16;5054335;28;20060;-66
2022/05/05 08:08:52;;;;;;;10.07;1.70;;;;;;;10.98;36.88;102137.44;5054268;28;20484;-66
2022/05/05 08:11:18;;;;;;;4.43;1.50;;;;;;;10.96;36.50;102134.06;5054625;28;20082;-66
2022/05/05 08:13:45;;;;;;;12.83;2.03;;;;;;;11.04;35.93;102136.94;5054701;28;20041;-65
2022/05/05 08:16:16;;;;;;;5.30;1.60;;;;;;;11.00;35.72;102135.53;5055202;28;20187;-65
2022/05/05 08:18:42;;;;;;;12.23;2.33;;;;;;;10.84;36.18;102126.16;5054122;28;20060;-64
2022/05/05 08:21:11;;;;;;;3.67;1.40;;;;;;;10.91;34.91;102130.97;5052490;28;20442;-63
2022/05/05 08:23:38;;;;;;;3.20;1.97;;;;;;;10.86;34.67;102128.69;5054053;28;20040;-65
2022/05/05 08:28:49;;;;;;;2.80;1.30;;;;;;;10.75;33.43;102115.44;5053366;28;20032;-64
2022/05/05 08:31:16;;;;;;;4.43;1.33;;;;;;;10.74;33.45;102119.09;5054258;28;20036;-65
2022/05/05 08:33:43;;;;;;;4.90;1.50;;;;;;;10.66;33.58;102129.53;5054197;28;20064;-69
2022/05/05 08:36:09;;;;;;;3.47;1.37;;;;;;;10.38;34.88;102112.34;5053902;28;20064;-67
2022/05/05 08:38:35;;;;;;;2.40;1.40;;;;;;;10.51;34.68;102134.34;5053921;28;20029;-65
2022/05/05 08:41:02;;;;;;;8.73;1.50;;;;;;;10.52;33.92;102104.06;5054196;28;20115;-71
2022/05/05 08:43:28;;;;;;;3.07;1.60;;;;;;;10.46;34.30;102131.22;5052907;28;20029;-68
2022/05/05 08:45:59;;;;;;;2.67;1.27;;;;;;;10.63;34.51;102119.97;5054784;28;20025;-68
2022/05/05 08:48:25;;;;;;;5.60;1.77;;;;;;;10.72;33.70;102111.22;5054832;28;20442;-70
2022/05/05 08:50:59;;;;;;;4.03;1.70;;;;;;;10.57;33.57;102082.38;5048906;28;20045;-71
2022/05/05 08:53:32;;;;;;;4.50;1.60;;;;;;;10.86;33.82;102118.88;5053898;28;20029;-69
2022/05/05 08:56:00;;;;;;;10.87;1.83;;;;;;;10.97;33.77;102120.59;5052584;28;20028;-74
2022/05/05 08:58:27;;;;;;;8.20;1.53;;;;;;;10.98;33.69;102110.78;5053958;28;20120;-68
2022/05/05 09:00:53;;;;;;;4.67;1.90;;;;;;;11.25;34.06;102119.06;5052501;28;20782;-66
2022/05/05 09:03:19;;;;;;;5.20;2.10;;;;;;;11.38;34.16;102125.03;5053222;28;20071;-66
2022/05/05 09:05:49;;;;;;;3.43;1.40;;;;;;;11.49;33.95;102116.91;5054010;28;20033;-66
2022/05/05 09:08:23;;;;;;;14.40;2.87;;;;;;;11.58;34.18;102098.41;5053983;28;20546;-67
2022/05/05 09:10:50;;;;;;;2.60;1.60;;;;;;;11.62;33.67;102105.16;5033166;28;20116;-70
2022/05/05 09:13:24;;;;;;;8.50;1.67;;;;;;;11.75;33.43;102119.94;5009301;28;20032;-75
2022/05/05 09:15:51;;;;;;;3.10;1.60;;;;;;;11.82;33.41;102101.56;5053631;28;20440;-71
2022/05/05 09:18:29;;;;;;;7.27;1.77;;;;;;;11.94;33.19;102095.13;5036857;28;20099;-72
2022/05/05 09:20:56;;;;;;;6.10;2.50;;;;;;;11.97;32.72;102070.81;5054613;28;20029;-66
2022/05/05 09:23:29;;;;;;;4.23;2.10;;;;;;;12.10;32.59;102081.22;5036112;28;20045;-65
2022/05/05 09:25:55;;;;;;;6.83;1.60;;;;;;;12.25;32.08;102111.03;5053501;28;20037;-70
2022/05/05 09:28:23;;;;;;;5.40;3.47;;;;;;;12.13;32.06;102082.75;5035611;28;20411;-67
2022/05/05 09:30:51;;;;;;;4.90;1.55;;;;;;;12.26;32.50;102110.06;5053393;28;20041;-66
2022/05/05 09:33:36;;;;;;;3.67;1.60;;;;;;;12.29;31.84;102113.28;5050455;28;20053;-71
2022/05/05 09:36:07;;;;;;;7.73;1.77;;;;;;;12.21;31.67;102096.28;5035648;28;20045;-74
2022/05/05 09:38:56;;;;;;;4.83;1.60;;;;;;;12.34;32.20;102107.50;5051458;28;20033;-69
2022/05/05 09:41:36;;;;;;;2.03;1.60;;;;;;;12.40;31.76;102109.59;5035526;28;20052;-74
2022/05/05 09:44:14;;;;;;;2.57;1.43;;;;;;;12.27;31.68;102107.25;5056892;28;20037;-80
2022/05/05 09:46:43;;;;;;;3.33;1.60;;;;;;;12.40;31.80;102096.25;5058713;28;20024;-70
2022/05/05 09:49:13;;;;;;;2.60;1.58;;;;;;;12.47;31.63;102078.69;5037243;28;20523;-72
2022/05/05 09:51:44;;;;;;;4.90;1.47;;;;;;;12.45;31.77;102101.19;5041562;28;20123;-71
2022/05/05 09:59:46;;;;;;;5.63;1.63;;;;;;;11.94;32.30;102084.47;5063910;28;20042;-69
2022/05/05 10:04:00;;;;;;;4.00;1.73;;;;;;;11.92;32.25;102082.91;5043611;28;20562;-70
2022/05/05 10:05:07;;;;;;;2.60;1.30;;;;;;;12.09;32.39;102095.56;5057813;28;20037;-67
2022/05/05 10:07:34;;;;;;;3.93;2.17;;;;;;;11.94;32.28;102083.63;5057187;28;20037;-66
2022/05/05 10:10:01;;;;;;;4.50;1.80;;;;;;;12.10;32.38;102082.06;5038450;28;20097;-69
2022/05/05 10:12:28;;;;;;;8.17;1.43;;;;;;;12.13;31.60;102104.13;5037827;28;20044;-66
2022/05/05 10:14:56;;;;;;;3.63;1.70;;;;;;;12.23;31.84;102096.97;5053508;28;20037;-66
2022/05/05 10:17:22;;;;;;;4.50;2.00;;;;;;;12.26;31.92;102115.41;5054444;28;20087;-67
2022/05/05 10:19:48;;;;;;;4.77;1.83;;;;;;;12.09;31.87;102085.72;5069918;28;20076;-67
2022/05/05 10:22:25;;;;;;;2.87;2.47;;;;;;;12.06;32.34;102083.34;5052127;28;20056;-69
2022/05/05 10:24:57;;;;;;;6.33;1.57;;;;;;;12.00;32.47;102083.91;5035149;28;20040;-69
2022/05/05 10:27:23;;;;;;;4.70;1.50;;;;;;;11.99;32.76;102084.88;5034962;28;20037;-71
2022/05/05 10:29:48;;;;;;;3.47;1.50;;;;;;;12.25;32.56;102098.53;5034777;28;20060;-66
2022/05/05 10:32:20;;;;;;;5.47;1.70;;;;;;;12.50;32.68;102097.09;5051302;28;20032;-65
2022/05/05 10:35:21;;;;;;;5.70;1.57;;;;;;;12.52;32.30;102111.16;5051081;28;20049;-65
2022/05/05 10:37:49;;;;;;;5.33;2.33;;;;;;;12.40;32.49;102096.25;5052535;28;20053;-72
2022/05/05 10:40:18;;;;;;;11.00;2.10;;;;;;;12.43;32.23;102106.66;5059962;28;20091;-65
2022/05/05 10:42:50;;;;;;;8.93;1.67;;;;;;;12.59;32.06;102106.94;5032698;28;20424;-67
2022/05/05 10:45:31;;;;;;;9.37;1.73;;;;;;;12.56;31.87;102096.53;5040456;28;20041;-67
2022/05/05 10:47:58;;;;;;;5.87;1.40;;;;;;;12.77;32.13;102111.56;5039615;28;20032;-67
2022/05/05 10:50:28;;;;;;;2.67;1.50;;;;;;;12.74;31.97;102106.50;5030918;28;20040;-65
2022/05/05 10:52:54;;;;;;;2.33;1.23;;;;;;;12.49;31.94;102107.94;5030885;28;20088;-65
2022/05/05 10:55:31;;;;;;;6.13;1.47;;;;;;;12.47;31.76;102107.25;5032324;28;20175;-70
2022/05/05 10:57:56;;;;;;;3.13;1.57;;;;;;;12.22;31.75;102119.34;5033902;28;20034;-73
2022/05/05 11:00:23;;;;;;;8.13;2.00;;;;;;;11.78;32.52;102117.03;5033251;28;20041;-77
2022/05/05 11:02:58;;;;;;;9.47;1.87;;;;;;;11.67;33.41;102094.91;5032864;28;20041;-74
2022/05/05 11:05:30;;;;;;;10.33;1.57;;;;;;;11.85;33.48;102111.13;5031174;28;20497;-68
2022/05/05 11:08:00;;;;;;;5.40;1.30;;;;;;;12.12;32.85;102103.28;5031679;28;20459;-67
2022/05/05 11:11:39;;;;;;;5.70;1.57;;;;;;;11.88;32.03;102061.00;5031649;28;20056;-62
2022/05/05 11:13:38;;;;;;;9.20;1.80;;;;;;;11.89;31.98;102064.50;5031601;28;20485;-67
2022/05/05 11:22:24;;;;;;;4.20;1.43;;;;;;;11.99;32.67;102098.22;5031479;28;20060;-69
2022/05/05 11:24:52;;;;;;;4.83;2.00;;;;;;;12.10;31.63;102100.75;5031467;28;20073;-73
2022/05/05 11:27:23;;;;;;;8.90;2.00;;;;;;;11.91;32.72;102106.09;5031680;28;20098;-67
2022/05/05 11:29:56;;;;;;;5.53;1.20;;;;;;;11.96;31.08;102095.84;5031447;28;20508;-66
2022/05/05 11:32:30;;;;;;;3.53;1.03;;;;;;;11.90;30.46;102099.06;5031334;28;20057;-69
2022/05/05 11:34:56;;;;;;;3.17;1.50;;;;;;;11.99;31.02;102092.88;5031526;28;20037;-68
2022/05/05 11:37:26;;;;;;;9.47;2.07;;;;;;;12.20;31.05;102083.91;5031377;28;20170;-69
2022/05/05 11:39:52;;;;;;;5.80;1.50;;;;;;;12.42;30.67;102091.59;5031487;28;20033;-68
2022/05/05 11:42:18;;;;;;;5.03;1.47;;;;;;;12.55;29.92;102094.84;5031319;28;20041;-66
2022/05/05 11:44:45;;;;;;;3.80;1.67;;;;;;;12.58;29.83;102089.22;5031485;28;20037;-67
2022/05/05 11:47:14;;;;;;;10.53;2.17;;;;;;;12.42;30.38;102094.28;5031536;28;20037;-77
2022/05/05 11:49:46;;;;;;;9.23;1.85;;;;;;;12.35;30.42;102077.97;5031656;28;20034;-71
2022/05/05 11:52:23;;;;;;;12.40;1.90;;;;;;;12.43;30.11;102071.91;5031898;28;20055;-76
2022/05/05 11:54:52;;;;;;;7.47;1.90;;;;;;;12.43;30.53;102085.28;5031864;28;20033;-72
2022/05/05 11:57:32;;;;;;;5.30;1.63;;;;;;;12.36;30.70;102070.81;5031458;28;20091;-78
2022/05/05 12:02:41;;;;;;;3.50;1.00;;;;;;;12.16;29.69;102087.84;5031941;28;20043;-71
2022/05/05 12:05:08;;;;;;;13.33;1.87;;;;;;;12.02;30.05;102078.41;5036291;28;20033;-68
2022/05/05 12:07:34;;;;;;;10.70;1.80;;;;;;;11.97;29.54;102073.50;5036815;28;20037;-65
2022/05/05 12:10:05;;;;;;;5.30;1.70;;;;;;;11.81;29.26;102024.31;5042951;28;20037;-66